This is the latest recevied weather packets stored in our database for station/object 4S6DRJ-13. If no packets are shown the sender has not sent any weather packets the latest 10 day(s).
| Time | Temp. | Humidity | Pressure | Rain* | Wind** | Luminosity | Snow |
|---|---|---|---|---|---|---|---|
| 1788070020 | 31.11° C | 70% | 1010.3 hPa | 0 mm | 2.68 m/s, 306° | 618 W/m² | - |
| 1788069959 | 30.56° C | 70% | 1010.5 hPa | 0 mm | 1.34 m/s, 67° | 1106 W/m² | - |
| 1788069899 | 30.56° C | 70% | 1010.4 hPa | 0 mm | 1.79 m/s, 250° | 713 W/m² | - |
| 1788069837 | 30.56° C | 70% | 1010.6 hPa | 0 mm | 1.34 m/s, 296° | 935 W/m² | - |
| 1788069776 | 30.56° C | 70% | 1010.6 hPa | 0 mm | 1.34 m/s, 207° | 1106 W/m² | - |
| 1788069715 | 30.56° C | 70% | 1010.6 hPa | 0 mm | 1.34 m/s, 182° | 1106 W/m² | - |
| 1788069654 | 30.56° C | 70% | 1010.6 hPa | 0 mm | 1.79 m/s, 283° | 1107 W/m² | - |
| 1788069593 | 30.56° C | 73% | 1010.4 hPa | 0 mm | 2.68 m/s, 259° | 1108 W/m² | - |
| 1788069532 | 30.56° C | 72% | 1010.5 hPa | 0 mm | 2.24 m/s, 208° | 518 W/m² | - |
| 1788069471 | 30.56° C | 73% | 1010.5 hPa | 0 mm | 1.79 m/s, 252° | 430 W/m² | - |
| 1788069410 | 30.56° C | 72% | 1010.6 hPa | 0 mm | 2.24 m/s, 230° | 563 W/m² | - |
| 1788069349 | 30.56° C | 73% | 1010.6 hPa | 0 mm | 0.89 m/s, 30° | 539 W/m² | - |
| 1788069288 | 30.56° C | 72% | 1010.5 hPa | 0 mm | 1.79 m/s, 351° | 826 W/m² | - |
| 1788069227 | 30.56° C | 73% | 1010.5 hPa | 0 mm | 0.89 m/s, 224° | 634 W/m² | - |
| 1788069166 | 30.56° C | 73% | 1010.6 hPa | 0 mm | 2.24 m/s, 247° | 877 W/m² | - |
| 1788069105 | 30.56° C | 72% | 1010.9 hPa | 0 mm | 1.79 m/s, 265° | 445 W/m² | - |
| 1788069044 | 30.56° C | 73% | 1010.8 hPa | 0 mm | 2.24 m/s, 301° | 435 W/m² | - |
| 1788068983 | 30.56° C | 74% | 1010.6 hPa | 0 mm | 2.24 m/s, 262° | 594 W/m² | - |
| 1788068922 | 30.56° C | 74% | 1010.7 hPa | 0 mm | 1.34 m/s, 283° | 1105 W/m² | - |
| 1788068862 | 30.56° C | 74% | 1010.5 hPa | 0 mm | 0.45 m/s, 236° | 478 W/m² | - |
| 1788068800 | 30.56° C | 74% | 1010.6 hPa | 0 mm | 0.89 m/s, 241° | 528 W/m² | - |
| 1788068739 | 30.56° C | 73% | 1010.7 hPa | 0 mm | 1.79 m/s, 216° | 1102 W/m² | - |
| 1788068678 | 30.56° C | 74% | 1010.6 hPa | 0 mm | 2.68 m/s, 176° | 842 W/m² | - |
| 1788068617 | 30.56° C | 73% | 1010.5 hPa | 0 mm | 1.79 m/s, 245° | 955 W/m² | - |
| 1788068556 | 30.56° C | 74% | 1010.6 hPa | 0 mm | 0.89 m/s, 185° | 906 W/m² | - |
* Rain latest hour (hover to see other rain measurements)
** Current wind speed in m/s (hover to see current wind gust speed)